sensor_id;sensor_type;location;lat;lon;timestamp;P1;durP1;ratioP1;P2;durP2;ratioP2
26391;SDS011;14572;43.120;1.178;2022-12-07T17:22:29;10.82;;;6.18;;
26391;SDS011;14572;43.120;1.178;2022-12-07T17:24:56;11.23;;;6.65;;
26391;SDS011;14572;43.120;1.178;2022-12-07T17:27:23;9.55;;;6.57;;
26391;SDS011;14572;43.120;1.178;2022-12-07T17:29:50;11.05;;;6.07;;
26391;SDS011;14572;43.120;1.178;2022-12-07T17:32:18;10.43;;;6.70;;
26391;SDS011;14572;43.120;1.178;2022-12-07T17:34:45;15.63;;;6.15;;
26391;SDS011;14572;43.120;1.178;2022-12-07T17:37:12;10.57;;;4.78;;
26391;SDS011;14572;43.120;1.178;2022-12-07T17:39:40;10.68;;;4.97;;
26391;SDS011;14572;43.120;1.178;2022-12-07T17:42:07;7.82;;;4.53;;
26391;SDS011;14572;43.120;1.178;2022-12-07T17:44:52;10.88;;;5.43;;
26391;SDS011;14572;43.120;1.178;2022-12-07T17:47:19;10.63;;;6.53;;
26391;SDS011;14572;43.120;1.178;2022-12-07T17:49:46;11.38;;;6.88;;
26391;SDS011;14572;43.120;1.178;2022-12-07T17:52:14;11.85;;;6.65;;
26391;SDS011;14572;43.120;1.178;2022-12-07T17:55:00;13.25;;;6.35;;
26391;SDS011;14572;43.120;1.178;2022-12-07T17:57:27;10.77;;;5.75;;
26391;SDS011;14572;43.120;1.178;2022-12-07T17:59:54;11.77;;;5.15;;
26391;SDS011;14572;43.120;1.178;2022-12-07T18:02:21;6.07;;;4.70;;
26391;SDS011;14572;43.120;1.178;2022-12-07T18:04:48;9.68;;;4.50;;
26391;SDS011;14572;43.120;1.178;2022-12-07T18:07:17;6.88;;;5.25;;
26391;SDS011;14572;43.120;1.178;2022-12-07T18:09:44;8.98;;;5.80;;
26391;SDS011;14572;43.120;1.178;2022-12-07T18:12:13;12.23;;;7.88;;
26391;SDS011;14572;43.120;1.178;2022-12-07T18:14:40;14.98;;;9.73;;
26391;SDS011;14572;43.120;1.178;2022-12-07T18:17:07;24.00;;;11.65;;
26391;SDS011;14572;43.120;1.178;2022-12-07T18:19:34;21.23;;;10.88;;
26391;SDS011;14572;43.120;1.178;2022-12-07T18:22:01;11.23;;;6.18;;
26391;SDS011;14572;43.120;1.178;2022-12-07T18:24:29;10.77;;;5.78;;
26391;SDS011;14572;43.120;1.178;2022-12-07T18:26:56;11.40;;;5.35;;
26391;SDS011;14572;43.120;1.178;2022-12-07T18:29:24;13.45;;;7.07;;
26391;SDS011;14572;43.120;1.178;2022-12-07T18:31:51;9.65;;;5.78;;
26391;SDS011;14572;43.120;1.178;2022-12-07T18:34:18;7.63;;;5.38;;
26391;SDS011;14572;43.120;1.178;2022-12-07T18:36:46;10.68;;;5.10;;
26391;SDS011;14572;43.120;1.178;2022-12-07T18:39:16;8.65;;;4.75;;
26391;SDS011;14572;43.120;1.178;2022-12-07T18:41:44;10.05;;;5.35;;
26391;SDS011;14572;43.120;1.178;2022-12-07T18:44:11;9.50;;;5.70;;
26391;SDS011;14572;43.120;1.178;2022-12-07T18:46:40;15.40;;;5.65;;
26391;SDS011;14572;43.120;1.178;2022-12-07T18:49:08;7.70;;;5.13;;
26391;SDS011;14572;43.120;1.178;2022-12-07T18:51:38;12.80;;;5.75;;
26391;SDS011;14572;43.120;1.178;2022-12-07T18:54:05;9.25;;;5.50;;
26391;SDS011;14572;43.120;1.178;2022-12-07T18:56:32;15.20;;;9.27;;
26391;SDS011;14572;43.120;1.178;2022-12-07T18:59:00;16.65;;;9.40;;
26391;SDS011;14572;43.120;1.178;2022-12-07T19:01:47;15.15;;;9.38;;
26391;SDS011;14572;43.120;1.178;2022-12-07T19:04:15;16.33;;;8.98;;
26391;SDS011;14572;43.120;1.178;2022-12-07T19:06:42;14.52;;;8.40;;
26391;SDS011;14572;43.120;1.178;2022-12-07T19:09:10;16.08;;;8.70;;
26391;SDS011;14572;43.120;1.178;2022-12-07T19:11:37;19.73;;;7.75;;
26391;SDS011;14572;43.120;1.178;2022-12-07T19:14:20;10.48;;;6.13;;
26391;SDS011;14572;43.120;1.178;2022-12-07T19:16:51;10.40;;;5.68;;
26391;SDS011;14572;43.120;1.178;2022-12-07T19:19:19;10.60;;;5.85;;
